Terminal Aerodrome Forecast
Issued by NWS

Home | Current Version | Previous Version | Text Only | Print | Product List | Glossary On
Versions: 1 2 3 4 5 6 7 8 9 10 11 12 13 14 15 16 17 18 19 20
739
FTPA31 PHFO 211816 AAA
TAFHNY
TAF AMD
PHNY 211816Z 2118/2218 27007KT P6SM VCSH SCT015 BKN025
     FM212300 04015KT P6SM VCSH SCT025
     FM220400 05006KT P6SM SCT025=

USA.gov is the U.S. government's official web portal to all federal, state and local government web resources and services.